createdAt,value
2023-07-26T00:00:36.132Z,1001.1
2023-07-26T00:03:36.111Z,1001.1
2023-07-26T00:06:36.110Z,1001.1
2023-07-26T00:09:36.115Z,1001.1
2023-07-26T00:12:36.117Z,1001.2
2023-07-26T00:15:36.146Z,1001.2
2023-07-26T00:18:36.134Z,1001.2
2023-07-26T00:21:36.113Z,1001.2
2023-07-26T00:24:36.165Z,1001.3
2023-07-26T00:27:36.148Z,1001.2
2023-07-26T00:30:36.176Z,1001.2
2023-07-26T00:33:36.127Z,1001.3
2023-07-26T00:36:36.141Z,1001.3
2023-07-26T00:39:36.159Z,1001.3
2023-07-26T00:42:36.141Z,1001.3
2023-07-26T00:45:36.145Z,1001.3
2023-07-26T00:48:36.154Z,1001.4
2023-07-26T00:51:36.139Z,1001.4
2023-07-26T00:54:36.146Z,1001.3
2023-07-26T00:57:36.156Z,1001.4
2023-07-26T01:00:36.169Z,1001.3
2023-07-26T01:03:36.173Z,1001.4
2023-07-26T01:06:36.179Z,1001.4
2023-07-26T01:09:36.188Z,1001.5
2023-07-26T01:12:36.218Z,1001.4
2023-07-26T01:15:36.243Z,1001.3
2023-07-26T01:18:36.228Z,1001.4
2023-07-26T01:21:36.248Z,1001.4
2023-07-26T01:24:36.293Z,1001.4
2023-07-26T01:27:36.299Z,1001.4
2023-07-26T01:30:36.369Z,1001.5
2023-07-26T01:33:36.319Z,1001.4
2023-07-26T01:36:36.344Z,1001.4
2023-07-26T01:39:36.336Z,1001.4
2023-07-26T01:42:36.322Z,1001.4
2023-07-26T01:45:36.333Z,1001.4
2023-07-26T01:48:36.324Z,1001.4
2023-07-26T01:51:36.334Z,1001.4
2023-07-26T01:54:36.332Z,1001.5
2023-07-26T01:57:36.339Z,1001.5
2023-07-26T02:00:36.332Z,1001.3
2023-07-26T02:03:36.340Z,1001.4
2023-07-26T02:06:36.338Z,1001.5
2023-07-26T02:09:36.352Z,1001.5
2023-07-26T02:12:36.329Z,1001.5
2023-07-26T02:15:36.339Z,1001.5
2023-07-26T02:18:36.337Z,1001.5
2023-07-26T02:21:36.347Z,1001.6
2023-07-26T02:24:36.363Z,1001.6
2023-07-26T02:27:36.339Z,1001.6
2023-07-26T02:30:36.347Z,1001.6
2023-07-26T02:33:36.349Z,1001.6
2023-07-26T02:36:36.344Z,1001.6
2023-07-26T02:39:36.348Z,1001.6
2023-07-26T02:42:36.347Z,1001.6
2023-07-26T02:45:36.351Z,1001.6
2023-07-26T02:48:36.352Z,1001.7
2023-07-26T02:51:36.355Z,1001.6
2023-07-26T02:54:36.372Z,1001.7
2023-07-26T02:57:36.358Z,1001.7
2023-07-26T03:00:36.373Z,1001.7
2023-07-26T03:03:36.460Z,1001.6
2023-07-26T03:06:36.361Z,1001.7
2023-07-26T03:09:36.366Z,1001.7
2023-07-26T03:12:36.372Z,1001.7
2023-07-26T03:15:36.376Z,1001.7
2023-07-26T03:18:36.381Z,1001.8
2023-07-26T03:21:36.379Z,1001.7
2023-07-26T03:24:36.389Z,1001.6
2023-07-26T03:27:36.395Z,1001.8
2023-07-26T03:30:36.392Z,1001.7
2023-07-26T03:33:36.403Z,1001.8
2023-07-26T03:36:36.385Z,1001.7
2023-07-26T03:39:36.392Z,1001.8
2023-07-26T03:42:36.387Z,1001.8
2023-07-26T03:45:36.423Z,1001.8
2023-07-26T03:48:36.393Z,1001.8
2023-07-26T03:51:36.389Z,1001.9
2023-07-26T03:54:36.407Z,1001.9
2023-07-26T03:57:36.401Z,1002
2023-07-26T04:00:36.402Z,1002
2023-07-26T04:03:36.486Z,1002
2023-07-26T04:06:36.407Z,1002
2023-07-26T04:09:36.405Z,1002
2023-07-26T04:12:36.421Z,1001.9
2023-07-26T04:15:38.112Z,1002
2023-07-26T04:18:36.418Z,1002
2023-07-26T04:21:37.273Z,1002.1
2023-07-26T04:24:36.451Z,1002.1
2023-07-26T04:27:36.443Z,1002.1
2023-07-26T04:30:36.430Z,1002.1
2023-07-26T04:33:36.440Z,1002.1
2023-07-26T04:36:36.439Z,1002.1
2023-07-26T04:39:36.448Z,1002.1
2023-07-26T04:42:36.450Z,1002.1
2023-07-26T04:45:36.452Z,1002.1
2023-07-26T04:48:36.454Z,1002.1
2023-07-26T04:51:36.455Z,1002.1
2023-07-26T04:54:36.454Z,1002.2
2023-07-26T04:57:36.467Z,1002.3
2023-07-26T05:00:36.512Z,1002.2
2023-07-26T05:03:36.479Z,1002.3
2023-07-26T05:06:36.484Z,1002.3
2023-07-26T05:09:36.499Z,1002.3
2023-07-26T05:12:36.502Z,1002.3
2023-07-26T05:15:36.498Z,1002.3
2023-07-26T05:18:36.505Z,1002.4
2023-07-26T05:21:36.600Z,1002.5
2023-07-26T05:24:36.547Z,1002.3
2023-07-26T05:27:36.510Z,1002.4
2023-07-26T05:30:36.518Z,1002.5
2023-07-26T05:33:36.512Z,1002.4
2023-07-26T05:36:36.529Z,1002.5
2023-07-26T05:39:36.525Z,1002.5
2023-07-26T05:42:36.541Z,1002.6
2023-07-26T05:45:36.538Z,1002.6
2023-07-26T05:48:36.535Z,1002.6
2023-07-26T05:51:36.551Z,1002.6
2023-07-26T05:54:36.551Z,1002.6
2023-07-26T05:57:36.551Z,1002.6
2023-07-26T06:00:36.552Z,1002.6
2023-07-26T06:03:36.561Z,1002.7
2023-07-26T06:06:36.557Z,1002.7
2023-07-26T06:09:36.564Z,1002.6
2023-07-26T06:12:36.565Z,1002.6
2023-07-26T06:15:36.579Z,1002.5
2023-07-26T06:18:36.573Z,1002.6
2023-07-26T06:21:36.578Z,1002.6
2023-07-26T06:24:36.605Z,1002.5
2023-07-26T06:27:36.586Z,1002.6
2023-07-26T06:30:36.624Z,1002.6
2023-07-26T06:33:36.596Z,1002.6
2023-07-26T06:36:36.598Z,1002.6
2023-07-26T06:39:36.599Z,1002.7
2023-07-26T06:42:36.600Z,1002.7
2023-07-26T06:45:36.598Z,1002.7
2023-07-26T06:48:36.606Z,1002.6
2023-07-26T06:51:36.629Z,1002.7
2023-07-26T06:54:36.629Z,1002.7
2023-07-26T06:57:36.628Z,1002.7
2023-07-26T07:00:36.636Z,1002.7
2023-07-26T07:03:36.639Z,1002.7
2023-07-26T07:06:36.701Z,1002.7
2023-07-26T07:09:36.730Z,1002.7
2023-07-26T07:12:36.742Z,1002.7
2023-07-26T07:15:36.745Z,1002.8
2023-07-26T07:18:37.139Z,1002.8
2023-07-26T07:21:37.293Z,1002.8
2023-07-26T07:24:36.745Z,1002.8
2023-07-26T07:27:36.740Z,1002.9
2023-07-26T07:30:36.750Z,1002.8
2023-07-26T07:33:36.747Z,1002.8
2023-07-26T07:36:36.753Z,1002.8
2023-07-26T07:39:36.758Z,1002.9
2023-07-26T07:42:36.757Z,1002.8
2023-07-26T07:45:36.777Z,1002.9
2023-07-26T07:48:36.760Z,1002.9
2023-07-26T07:51:36.759Z,1002.9
2023-07-26T07:54:36.753Z,1002.8
2023-07-26T07:57:36.850Z,1002.9
2023-07-26T08:00:36.754Z,1002.9
2023-07-26T08:03:36.798Z,1002.9
2023-07-26T08:06:36.752Z,1002.9
2023-07-26T08:09:36.760Z,1002.9
2023-07-26T08:12:36.773Z,1002.8
2023-07-26T08:15:36.774Z,1002.9
2023-07-26T08:18:36.764Z,1002.8
2023-07-26T08:21:36.776Z,1002.8
2023-07-26T08:24:36.796Z,1002.9
2023-07-26T08:27:36.781Z,1003
2023-07-26T08:30:36.778Z,1002.8
2023-07-26T08:33:36.771Z,1002.8
2023-07-26T08:36:36.767Z,1002.8
2023-07-26T08:39:36.789Z,1002.7
2023-07-26T08:42:36.774Z,1002.7
2023-07-26T08:45:36.813Z,1002.7
2023-07-26T08:48:36.779Z,1002.7
2023-07-26T08:51:36.778Z,1002.8
2023-07-26T08:54:36.782Z,1002.7
2023-07-26T08:57:36.779Z,1002.8
2023-07-26T09:00:36.862Z,1002.8
2023-07-26T09:03:36.848Z,1002.8
2023-07-26T09:06:36.785Z,1002.8
2023-07-26T09:09:36.799Z,1002.9
2023-07-26T09:12:36.788Z,1002.7
2023-07-26T09:15:36.846Z,1002.9
2023-07-26T09:18:36.789Z,1002.8
2023-07-26T09:21:36.970Z,1002.8
2023-07-26T09:24:36.820Z,1002.7
2023-07-26T09:27:36.802Z,1002.7
2023-07-26T09:30:36.798Z,1002.8
2023-07-26T09:33:36.804Z,1002.8
2023-07-26T09:36:36.807Z,1002.8
2023-07-26T09:39:36.808Z,1003
2023-07-26T09:42:36.810Z,1003.2
2023-07-26T09:45:36.811Z,1003.1
2023-07-26T09:51:36.812Z,1003.1
2023-07-26T09:54:36.820Z,1003
2023-07-26T09:57:36.828Z,1003.1
2023-07-26T10:00:36.824Z,1003
2023-07-26T10:03:36.859Z,1003
2023-07-26T10:06:36.834Z,1003
2023-07-26T10:09:36.834Z,1003
2023-07-26T10:12:36.843Z,1003
2023-07-26T10:15:36.852Z,1003
2023-07-26T10:18:36.859Z,1002.9
2023-07-26T10:21:36.849Z,1002.9
2023-07-26T10:24:36.860Z,1002.9
2023-07-26T10:27:36.859Z,1002.9
2023-07-26T10:30:36.882Z,1002.8
2023-07-26T10:33:36.862Z,1002.7
2023-07-26T10:36:37.130Z,1002.7
2023-07-26T10:39:36.870Z,1002.6
2023-07-26T10:42:36.877Z,1002.6
2023-07-26T10:45:36.890Z,1002.5
2023-07-26T10:48:36.891Z,1002.5
2023-07-26T10:51:36.892Z,1002.6
2023-07-26T10:54:36.910Z,1002.5
2023-07-26T10:57:36.904Z,1002.5
2023-07-26T11:00:36.899Z,1002.5
2023-07-26T11:03:36.906Z,1002.5
2023-07-26T11:06:36.915Z,1002.5
2023-07-26T11:09:36.953Z,1002.6
2023-07-26T11:12:36.927Z,1002.6
2023-07-26T11:15:49.323Z,1002.5
2023-07-26T11:18:36.935Z,1002.5
2023-07-26T11:21:36.939Z,1002.7
2023-07-26T11:24:36.984Z,1002.7
2023-07-26T11:27:36.948Z,1002.7
2023-07-26T11:30:36.960Z,1002.7
2023-07-26T11:33:36.965Z,1002.7
2023-07-26T11:36:36.973Z,1002.7
2023-07-26T11:39:36.983Z,1002.8
2023-07-26T11:42:36.997Z,1002.8
2023-07-26T11:45:37.000Z,1002.9
2023-07-26T11:48:37.005Z,1002.9
2023-07-26T11:51:37.011Z,1002.9
2023-07-26T11:54:37.019Z,1002.7
2023-07-26T11:57:37.017Z,1002.8
2023-07-26T12:00:37.032Z,1002.9
2023-07-26T12:03:37.103Z,1003
2023-07-26T12:06:37.051Z,1003
2023-07-26T12:09:37.056Z,1003.2
2023-07-26T12:12:37.077Z,1003.1
2023-07-26T12:15:37.070Z,1003.2
2023-07-26T12:18:37.081Z,1003.2
2023-07-26T12:21:37.258Z,1003.1
2023-07-26T12:24:37.107Z,1003.2
2023-07-26T12:27:37.103Z,1003
2023-07-26T12:30:37.103Z,1003.1
2023-07-26T12:33:37.111Z,1003.1
2023-07-26T12:36:37.130Z,1003.1
2023-07-26T12:39:37.132Z,1003.1
2023-07-26T12:42:37.134Z,1003.1
2023-07-26T12:45:37.184Z,1003
2023-07-26T12:48:37.158Z,1003.1
2023-07-26T12:51:37.275Z,1003
2023-07-26T12:54:37.171Z,1002.9
2023-07-26T12:57:37.231Z,1003
2023-07-26T13:00:37.173Z,1003
2023-07-26T13:03:37.239Z,1003
2023-07-26T13:06:38.118Z,1002.9
2023-07-26T13:09:37.199Z,1002.8
2023-07-26T13:12:37.201Z,1002.8
2023-07-26T13:15:37.239Z,1002.9
2023-07-26T13:18:37.215Z,1002.8
2023-07-26T13:21:37.221Z,1002.7
2023-07-26T13:24:37.248Z,1002.8
2023-07-26T13:27:37.235Z,1002.7
2023-07-26T13:30:37.244Z,1002.7
2023-07-26T13:33:37.257Z,1002.7
2023-07-26T13:36:37.251Z,1002.7
2023-07-26T13:39:37.256Z,1002.7
2023-07-26T13:42:37.253Z,1002.7
2023-07-26T13:45:37.257Z,1002.7
2023-07-26T13:48:37.284Z,1002.6
2023-07-26T13:51:37.270Z,1002.7
2023-07-26T13:54:37.277Z,1002.7
2023-07-26T13:57:37.279Z,1002.7
2023-07-26T14:00:37.291Z,1002.7
2023-07-26T14:03:37.291Z,1002.7
2023-07-26T14:06:37.372Z,1002.7
2023-07-26T14:09:37.352Z,1002.7
2023-07-26T14:12:37.333Z,1002.7
2023-07-26T14:15:37.306Z,1002.8
2023-07-26T14:18:37.303Z,1002.8
2023-07-26T14:21:37.312Z,1002.7
2023-07-26T14:24:37.325Z,1002.8
2023-07-26T14:27:37.318Z,1002.6
2023-07-26T14:30:37.315Z,1002.7
2023-07-26T14:33:37.324Z,1002.7
2023-07-26T14:36:37.317Z,1002.7
2023-07-26T14:39:37.316Z,1002.7
2023-07-26T14:42:37.332Z,1002.7
2023-07-26T14:45:37.319Z,1002.7
2023-07-26T14:48:37.321Z,1002.7
2023-07-26T14:51:37.334Z,1002.7
2023-07-26T14:54:37.337Z,1002.6
2023-07-26T14:57:37.337Z,1002.6
2023-07-26T15:00:37.376Z,1002.6
2023-07-26T15:03:37.547Z,1002.6
2023-07-26T15:06:37.375Z,1002.7
2023-07-26T15:09:37.405Z,1002.8
2023-07-26T15:12:37.406Z,1002.9
2023-07-26T15:15:37.412Z,1003.1
2023-07-26T15:18:37.425Z,1003.2
2023-07-26T15:21:37.428Z,1003.4
2023-07-26T15:24:37.466Z,1003.5
2023-07-26T15:27:37.531Z,1003.3
2023-07-26T15:30:37.469Z,1003.2
2023-07-26T15:33:37.474Z,1003
2023-07-26T15:36:37.476Z,1003.1
2023-07-26T15:39:37.503Z,1003.2
2023-07-26T15:42:39.332Z,1003.2
2023-07-26T15:48:39.068Z,1003.1
2023-07-26T15:51:37.536Z,1003.1
2023-07-26T15:54:37.535Z,1003.1
2023-07-26T15:57:37.548Z,1003
2023-07-26T16:00:37.562Z,1003
2023-07-26T16:03:37.618Z,1003
2023-07-26T16:07:01.730Z,1003
2023-07-26T16:09:37.609Z,1003
2023-07-26T16:12:37.584Z,1003.1
2023-07-26T16:16:23.359Z,1003
2023-07-26T16:18:37.604Z,1002.9
2023-07-26T16:24:37.626Z,1002.9
2023-07-26T16:27:37.614Z,1002.8
2023-07-26T16:30:37.612Z,1002.9
2023-07-26T16:33:37.632Z,1002.9
2023-07-26T16:36:37.625Z,1002.9
2023-07-26T16:39:37.633Z,1002.8
2023-07-26T16:42:37.641Z,1002.8
2023-07-26T16:45:37.680Z,1002.8
2023-07-26T16:48:37.662Z,1002.7
2023-07-26T16:51:37.668Z,1002.7
2023-07-26T16:54:37.685Z,1002.7
2023-07-26T16:57:37.661Z,1002.8
2023-07-26T17:00:38.097Z,1002.7
2023-07-26T17:03:37.736Z,1002.7
2023-07-26T17:06:37.684Z,1002.7
2023-07-26T17:09:37.676Z,1002.7
2023-07-26T17:12:37.856Z,1002.7
2023-07-26T17:15:37.850Z,1002.7
2023-07-26T17:18:37.954Z,1002.7
2023-07-26T17:21:37.695Z,1002.7
2023-07-26T17:24:37.714Z,1002.7
2023-07-26T17:27:37.699Z,1002.7
2023-07-26T17:30:37.702Z,1002.7
2023-07-26T17:33:37.707Z,1002.7
2023-07-26T17:36:37.733Z,1002.6
2023-07-26T17:39:37.726Z,1002.9
2023-07-26T17:42:37.758Z,1003
2023-07-26T17:45:37.744Z,1003.2
2023-07-26T17:48:37.736Z,1003.2
2023-07-26T17:51:37.746Z,1003.3
2023-07-26T17:54:37.743Z,1003.3
2023-07-26T17:57:37.745Z,1003.5
2023-07-26T18:00:37.755Z,1003.6
2023-07-26T18:03:37.765Z,1003.7
2023-07-26T18:06:37.767Z,1003.7
2023-07-26T18:09:37.772Z,1003.7
2023-07-26T18:12:37.776Z,1003.7
2023-07-26T18:15:37.881Z,1003.7
2023-07-26T18:18:37.784Z,1003.7
2023-07-26T18:21:37.791Z,1003.7
2023-07-26T18:24:37.793Z,1003.7
2023-07-26T18:27:37.846Z,1003.7
2023-07-26T18:30:37.804Z,1003.7
2023-07-26T18:33:37.802Z,1003.7
2023-07-26T18:36:37.807Z,1003.7
2023-07-26T18:39:37.816Z,1003.6
2023-07-26T18:42:37.820Z,1003.7
2023-07-26T18:45:37.835Z,1003.7
2023-07-26T18:48:37.839Z,1003.8
2023-07-26T18:51:37.842Z,1003.7
2023-07-26T18:54:37.837Z,1003.8
2023-07-26T18:57:37.840Z,1003.9
2023-07-26T19:00:37.861Z,1003.9
2023-07-26T19:03:37.861Z,1004
2023-07-26T19:06:37.859Z,1004.1
2023-07-26T19:09:37.869Z,1004.1
2023-07-26T19:12:37.871Z,1004.1
2023-07-26T19:15:37.876Z,1004.2
2023-07-26T19:18:37.875Z,1004.1
2023-07-26T19:21:37.879Z,1004.3
2023-07-26T19:24:37.924Z,1004.2
2023-07-26T19:27:37.896Z,1004.2
2023-07-26T19:30:37.939Z,1004.3
2023-07-26T19:33:37.900Z,1004.4
2023-07-26T19:36:37.915Z,1004.4
2023-07-26T19:39:37.917Z,1004.4
2023-07-26T19:42:37.945Z,1004.2
2023-07-26T19:45:37.919Z,1004.3
2023-07-26T19:48:37.933Z,1004.4
2023-07-26T19:51:37.938Z,1004.4
2023-07-26T19:54:37.947Z,1004.5
2023-07-26T19:57:37.944Z,1004.5
2023-07-26T20:00:37.961Z,1004.5
2023-07-26T20:03:37.971Z,1004.4
2023-07-26T20:06:37.953Z,1004.5
2023-07-26T20:09:37.957Z,1004.5
2023-07-26T20:12:37.960Z,1004.5
2023-07-26T20:15:37.967Z,1004.6
2023-07-26T20:18:37.964Z,1004.6
2023-07-26T20:21:37.977Z,1004.5
2023-07-26T20:24:37.988Z,1004.7
2023-07-26T20:27:37.985Z,1004.7
2023-07-26T20:30:38.043Z,1004.6
2023-07-26T20:33:37.991Z,1004.7
2023-07-26T20:36:38.005Z,1004.6
2023-07-26T20:39:38.024Z,1004.6
2023-07-26T20:42:38.000Z,1004.5
2023-07-26T20:45:38.004Z,1004.5
2023-07-26T20:48:38.011Z,1004.4
2023-07-26T20:51:38.016Z,1004.6
2023-07-26T20:54:38.025Z,1004.6
2023-07-26T20:57:38.018Z,1004.6
2023-07-26T21:00:38.023Z,1004.5
2023-07-26T21:03:38.144Z,1004.5
2023-07-26T21:06:38.038Z,1004.5
2023-07-26T21:09:38.032Z,1004.5
2023-07-26T21:12:38.070Z,1004.4
2023-07-26T21:15:38.049Z,1004.4
2023-07-26T21:18:38.053Z,1004.4
2023-07-26T21:21:38.048Z,1004.5
2023-07-26T21:24:38.103Z,1004.5
2023-07-26T21:27:38.076Z,1004.5
2023-07-26T21:30:38.068Z,1004.5
2023-07-26T21:33:38.071Z,1004.5
2023-07-26T21:36:38.079Z,1004.4
2023-07-26T21:39:38.074Z,1004.4
2023-07-26T21:42:38.086Z,1004.4
2023-07-26T21:45:38.090Z,1004.4
2023-07-26T21:48:38.097Z,1004.4
2023-07-26T21:51:38.097Z,1004.4
2023-07-26T21:54:38.099Z,1004.4
2023-07-26T21:57:38.111Z,1004.3
2023-07-26T22:00:38.112Z,1004.3
2023-07-26T22:03:38.116Z,1004.3
2023-07-26T22:06:38.133Z,1004.4
2023-07-26T22:09:38.127Z,1004.4
2023-07-26T22:12:38.133Z,1004.4
2023-07-26T22:15:38.134Z,1004.4
2023-07-26T22:18:38.139Z,1004.4
2023-07-26T22:21:38.171Z,1004.4
2023-07-26T22:24:38.153Z,1004.3
2023-07-26T22:27:38.142Z,1004.3
2023-07-26T22:30:38.150Z,1004.3
2023-07-26T22:33:38.167Z,1004.2
2023-07-26T22:36:38.168Z,1004.2
2023-07-26T22:39:38.169Z,1004.2
2023-07-26T22:42:38.184Z,1004.2
2023-07-26T22:45:38.217Z,1004.2
2023-07-26T22:48:38.180Z,1004.1
2023-07-26T22:51:38.184Z,1004.1
2023-07-26T22:54:38.187Z,1004.1
2023-07-26T22:57:38.195Z,1004.1
2023-07-26T23:00:38.191Z,1004.1
2023-07-26T23:03:38.248Z,1004.1
2023-07-26T23:06:38.214Z,1004.1
2023-07-26T23:09:38.212Z,1004.1
2023-07-26T23:12:38.205Z,1004.1
2023-07-26T23:15:38.247Z,1004.1
2023-07-26T23:18:38.225Z,1004.1
2023-07-26T23:21:38.219Z,1004
2023-07-26T23:24:38.253Z,1004
2023-07-26T23:27:38.250Z,1003.7
2023-07-26T23:30:38.242Z,1003.9
2023-07-26T23:33:38.242Z,1003.9
2023-07-26T23:36:38.242Z,1003.9
2023-07-26T23:39:38.251Z,1003.8
2023-07-26T23:42:38.266Z,1003.8
2023-07-26T23:45:38.266Z,1003.8
2023-07-26T23:48:38.284Z,1003.8
2023-07-26T23:51:38.282Z,1003.8
2023-07-26T23:54:38.290Z,1003.8
2023-07-26T23:57:38.286Z,1003.8
